createdAt,value
2023-02-05T00:00:06.595Z,27.20
2023-02-05T00:03:08.626Z,26.80
2023-02-05T00:06:11.061Z,26.00
2023-02-05T00:09:13.040Z,25.60
2023-02-05T00:12:15.402Z,26.90
2023-02-05T00:15:17.434Z,26.30
2023-02-05T00:18:19.731Z,26.80
2023-02-05T00:21:22.872Z,27.00
2023-02-05T00:24:25.322Z,26.80
2023-02-05T00:27:27.729Z,25.30
2023-02-05T00:30:30.300Z,24.60
2023-02-05T00:33:32.395Z,24.30
2023-02-05T00:36:34.652Z,24.60
2023-02-05T00:39:36.647Z,24.00
2023-02-05T00:42:39.112Z,24.10
2023-02-05T00:45:41.096Z,23.90
2023-02-05T00:48:43.903Z,24.10
2023-02-05T00:51:45.914Z,24.20
2023-02-05T00:54:48.190Z,23.70
2023-02-05T00:57:50.311Z,24.10
2023-02-05T01:00:52.732Z,23.40
2023-02-05T01:03:54.744Z,23.20
2023-02-05T01:06:57.049Z,22.40
2023-02-05T01:09:59.070Z,21.90
2023-02-05T01:13:01.570Z,22.30
2023-02-05T01:16:04.316Z,22.30
2023-02-05T01:19:08.208Z,21.90
2023-02-05T01:22:11.535Z,21.70
2023-02-05T01:25:13.858Z,21.40
2023-02-05T01:28:17.243Z,21.30
2023-02-05T01:31:20.709Z,21.60
2023-02-05T01:34:22.826Z,21.30
2023-02-05T01:37:25.410Z,21.10
2023-02-05T01:40:27.825Z,21.00
2023-02-05T01:43:30.174Z,20.50
2023-02-05T01:46:32.500Z,20.60
2023-02-05T01:49:39.089Z,20.30
2023-02-05T01:52:41.399Z,20.30
2023-02-05T01:56:08.348Z,20.40
2023-02-05T01:59:18.877Z,20.30
2023-02-05T02:02:21.273Z,20.20
2023-02-05T02:05:23.406Z,20.10
2023-02-05T02:08:26.564Z,20.10
2023-02-05T02:11:31.108Z,20.10
2023-02-05T02:14:36.107Z,20.30
2023-02-05T02:17:42.502Z,20.20
2023-02-05T02:20:46.406Z,20.40
2023-02-05T02:24:03.617Z,20.50
2023-02-05T02:27:11.639Z,20.60
2023-02-05T02:30:16.406Z,20.30
2023-02-05T02:33:48.246Z,20.40
2023-02-05T02:37:06.988Z,20.20
2023-02-05T02:40:28.882Z,20.20
2023-02-05T02:43:34.510Z,20.30
2023-02-05T02:46:52.172Z,20.30
2023-02-05T02:49:59.634Z,19.70
2023-02-05T02:53:16.912Z,19.40
2023-02-05T02:56:20.652Z,19.20
2023-02-05T02:59:25.822Z,19.10
2023-02-05T03:02:32.293Z,18.60
2023-02-05T03:05:36.346Z,19.20
2023-02-05T03:08:50.058Z,18.60
2023-02-05T03:11:52.449Z,18.40
2023-02-05T03:14:55.374Z,18.70
2023-02-05T03:17:58.101Z,18.70
2023-02-05T03:21:12.863Z,18.50
2023-02-05T03:24:15.650Z,18.50
2023-02-05T03:27:17.754Z,18.50
2023-02-05T03:30:21.076Z,18.60
2023-02-05T03:33:55.110Z,18.40
2023-02-05T03:37:35.517Z,18.60
2023-02-05T03:41:03.392Z,18.60
2023-02-05T03:44:14.578Z,18.40
2023-02-05T03:47:45.759Z,18.20
2023-02-05T03:51:10.364Z,18.50
2023-02-05T03:54:22.483Z,18.70
2023-02-05T03:57:30.756Z,18.30
2023-02-05T04:00:33.462Z,18.30
2023-02-05T04:03:35.956Z,18.50
2023-02-05T04:06:38.309Z,18.30
2023-02-05T04:09:40.553Z,18.50
2023-02-05T04:12:42.550Z,18.10
2023-02-05T04:15:44.820Z,18.70
2023-02-05T04:18:46.849Z,18.50
2023-02-05T04:21:49.215Z,18.40
2023-02-05T04:24:51.226Z,18.30
2023-02-05T04:27:54.507Z,18.30
2023-02-05T04:30:56.515Z,18.50
2023-02-05T04:34:00.039Z,18.40
2023-02-05T04:37:02.519Z,18.40
2023-02-05T04:40:05.548Z,17.70
2023-02-05T04:43:07.713Z,17.50
2023-02-05T04:46:11.710Z,17.90
2023-02-05T04:49:13.762Z,17.80
2023-02-05T04:52:16.112Z,17.90
2023-02-05T04:55:18.095Z,17.80
2023-02-05T04:58:21.448Z,17.50
2023-02-05T05:01:24.289Z,17.60
2023-02-05T05:04:26.884Z,17.70
2023-02-05T05:07:31.227Z,17.70
2023-02-05T05:10:33.526Z,17.70
2023-02-05T05:13:35.850Z,17.40
2023-02-05T05:16:38.108Z,17.50
2023-02-05T05:19:40.341Z,17.70
2023-02-05T05:22:42.658Z,17.70
2023-02-05T05:25:46.886Z,17.60
2023-02-05T05:28:54.193Z,17.50
2023-02-05T05:31:56.263Z,17.90
2023-02-05T05:34:58.981Z,18.30
2023-02-05T05:38:01.734Z,18.50
2023-02-05T05:41:39.728Z,17.70
2023-02-05T05:44:41.813Z,17.90
2023-02-05T05:47:44.185Z,17.70
2023-02-05T05:50:46.630Z,17.70
2023-02-05T05:53:49.032Z,17.70
2023-02-05T05:56:51.040Z,17.60
2023-02-05T05:59:53.388Z,18.10
2023-02-05T06:02:55.347Z,18.50
2023-02-05T06:05:59.920Z,18.00
2023-02-05T06:09:01.922Z,18.40
2023-02-05T06:12:04.355Z,18.40
2023-02-05T06:15:07.437Z,18.20
2023-02-05T06:18:09.856Z,18.40
2023-02-05T06:21:11.884Z,18.30
2023-02-05T06:24:14.195Z,18.30
2023-02-05T06:27:16.214Z,18.00
2023-02-05T06:30:18.758Z,17.90
2023-02-05T06:33:20.710Z,17.90
2023-02-05T06:36:23.373Z,17.70
2023-02-05T06:39:25.467Z,18.00
2023-02-05T06:42:28.543Z,18.30
2023-02-05T06:45:30.683Z,18.20
2023-02-05T06:48:32.968Z,18.10
2023-02-05T06:51:35.008Z,18.30
2023-02-05T06:54:38.761Z,17.90
2023-02-05T06:57:40.747Z,18.00
2023-02-05T07:00:43.159Z,18.00
2023-02-05T07:03:45.278Z,18.00
2023-02-05T07:06:47.552Z,18.20
2023-02-05T07:09:49.839Z,18.30
2023-02-05T07:12:52.086Z,18.30
2023-02-05T07:15:54.122Z,18.40
2023-02-05T07:18:57.586Z,18.50
2023-02-05T07:21:59.662Z,18.60
2023-02-05T07:25:04.208Z,18.50
2023-02-05T07:28:08.425Z,18.60
2023-02-05T07:31:15.294Z,18.70
2023-02-05T07:34:17.383Z,18.70
2023-02-05T07:37:21.415Z,18.70
2023-02-05T07:40:23.612Z,18.90
2023-02-05T07:43:25.969Z,19.20
2023-02-05T07:46:28.152Z,19.10
2023-02-05T07:49:30.594Z,19.10
2023-02-05T07:52:33.753Z,19.30
2023-02-05T07:55:36.309Z,19.30
2023-02-05T07:58:38.583Z,19.40
2023-02-05T08:01:48.902Z,19.40
2023-02-05T08:04:54.272Z,19.50
2023-02-05T08:07:56.606Z,19.40
2023-02-05T08:11:04.025Z,19.40
2023-02-05T08:14:06.436Z,19.40
2023-02-05T08:17:08.418Z,19.30
2023-02-05T08:20:11.427Z,19.40
2023-02-05T08:23:13.633Z,19.20
2023-02-05T08:26:16.554Z,19.50
2023-02-05T08:29:18.836Z,19.60
2023-02-05T08:32:21.164Z,19.50
2023-02-05T08:35:23.241Z,19.60
2023-02-05T08:38:29.439Z,19.40
2023-02-05T08:41:31.530Z,19.70
2023-02-05T08:44:34.860Z,19.60
2023-02-05T08:47:37.186Z,19.70
2023-02-05T08:50:39.554Z,19.80
2023-02-05T08:53:42.105Z,19.80
2023-02-05T08:56:45.322Z,19.70
2023-02-05T08:59:48.453Z,20.00
2023-02-05T09:02:50.789Z,20.40
2023-02-05T09:05:53.008Z,21.30
2023-02-05T09:08:55.327Z,21.50
2023-02-05T09:11:58.688Z,21.40
2023-02-05T09:15:01.034Z,21.00
2023-02-05T09:18:03.066Z,21.30
2023-02-05T09:21:10.102Z,21.10
2023-02-05T09:24:12.098Z,20.90
2023-02-05T09:27:15.025Z,21.10
2023-02-05T09:30:17.187Z,21.70
2023-02-05T09:33:19.523Z,21.80
2023-02-05T09:36:23.463Z,21.00
2023-02-05T09:40:01.960Z,20.90
2023-02-05T09:43:03.160Z,21.10
2023-02-05T09:46:33.685Z,21.30
2023-02-05T09:49:47.118Z,20.70
2023-02-05T09:52:54.197Z,20.40
2023-02-05T09:55:57.650Z,20.20
2023-02-05T09:59:00.276Z,19.90
2023-02-05T10:02:16.658Z,20.30
2023-02-05T10:05:23.733Z,20.20
2023-02-05T10:08:39.578Z,19.80
2023-02-05T10:11:43.018Z,19.50
2023-02-05T10:15:19.679Z,19.40
2023-02-05T10:18:46.578Z,19.70
2023-02-05T10:22:12.670Z,19.60
2023-02-05T10:25:35.150Z,19.10
2023-02-05T10:28:57.464Z,19.30
2023-02-05T10:32:07.665Z,19.00
2023-02-05T10:35:23.910Z,19.00
2023-02-05T10:38:29.204Z,19.00
2023-02-05T10:41:53.019Z,19.20
2023-02-05T10:45:04.770Z,18.90
2023-02-05T10:48:09.898Z,19.00
2023-02-05T10:51:16.746Z,19.40
2023-02-05T10:54:29.414Z,19.60
2023-02-05T10:57:35.477Z,19.90
2023-02-05T11:00:39.121Z,19.80
2023-02-05T11:03:56.302Z,19.60
2023-02-05T11:06:58.651Z,19.80
2023-02-05T11:10:26.304Z,20.20
2023-02-05T11:13:30.160Z,19.60
2023-02-05T11:16:42.003Z,19.70
2023-02-05T11:19:59.140Z,19.60
2023-02-05T11:23:16.424Z,19.70
2023-02-05T11:26:21.154Z,19.50
2023-02-05T11:29:33.111Z,19.70
2023-02-05T11:32:37.765Z,19.70
2023-02-05T11:35:40.217Z,19.20
2023-02-05T11:38:54.449Z,19.50
2023-02-05T11:41:58.599Z,19.70
2023-02-05T11:45:05.265Z,19.50
2023-02-05T11:48:28.377Z,19.20
2023-02-05T11:51:36.364Z,19.00
2023-02-05T11:54:43.747Z,18.90
2023-02-05T11:57:46.022Z,18.80
2023-02-05T12:00:57.748Z,18.50
2023-02-05T12:04:11.564Z,18.50
2023-02-05T12:07:16.666Z,18.60
2023-02-05T12:10:26.845Z,18.30
2023-02-05T12:14:02.189Z,18.40
2023-02-05T12:17:23.365Z,18.60
2023-02-05T12:20:38.795Z,18.90
2023-02-05T12:23:58.939Z,19.20
2023-02-05T12:27:45.979Z,18.90
2023-02-05T12:31:27.485Z,18.60
2023-02-05T12:34:41.327Z,18.50
2023-02-05T12:38:21.134Z,18.30
2023-02-05T12:41:51.518Z,18.20
2023-02-05T12:45:01.687Z,18.20
2023-02-05T12:48:32.628Z,18.30
2023-02-05T12:51:43.284Z,18.20
2023-02-05T12:55:08.408Z,18.30
2023-02-05T12:58:16.663Z,18.00
2023-02-05T13:01:32.087Z,17.80
2023-02-05T13:04:44.418Z,17.80
2023-02-05T13:07:49.621Z,18.00
2023-02-05T13:11:12.703Z,17.70
2023-02-05T13:14:21.841Z,18.00
2023-02-05T13:17:29.799Z,17.80
2023-02-05T13:21:08.088Z,17.40
2023-02-05T13:24:46.442Z,17.30
2023-02-05T13:28:13.247Z,17.50
2023-02-05T13:31:25.774Z,17.40
2023-02-05T13:34:36.988Z,17.40
2023-02-05T13:37:51.559Z,17.50
2023-02-05T13:41:21.739Z,17.40
2023-02-05T13:44:54.500Z,17.30
2023-02-05T13:48:31.191Z,17.20
2023-02-05T13:51:55.845Z,17.40
2023-02-05T13:55:19.884Z,17.50
2023-02-05T13:58:34.524Z,17.40
2023-02-05T14:01:43.210Z,17.10
2023-02-05T14:04:54.816Z,17.20
2023-02-05T14:08:04.761Z,17.20
2023-02-05T14:11:07.043Z,17.20
2023-02-05T14:14:30.925Z,16.90
2023-02-05T14:17:32.883Z,17.00
2023-02-05T14:20:38.483Z,16.70
2023-02-05T14:23:46.490Z,16.70
2023-02-05T14:26:58.608Z,17.00
2023-02-05T14:30:33.099Z,16.70
2023-02-05T14:33:46.046Z,16.70
2023-02-05T14:36:51.278Z,16.80
2023-02-05T14:40:00.370Z,17.20
2023-02-05T14:43:19.968Z,17.10
2023-02-05T14:46:49.507Z,17.20
2023-02-05T14:50:09.699Z,17.00
2023-02-05T14:53:26.647Z,17.00
2023-02-05T14:56:44.011Z,17.00
2023-02-05T15:00:02.548Z,17.20
2023-02-05T15:03:22.630Z,17.10
2023-02-05T15:06:34.452Z,17.20
2023-02-05T15:10:02.034Z,17.20
2023-02-05T15:13:16.920Z,17.40
2023-02-05T15:16:21.654Z,17.60
2023-02-05T15:19:24.164Z,17.60
2023-02-05T15:22:28.805Z,17.60
2023-02-05T15:25:58.353Z,17.90
2023-02-05T15:29:35.577Z,18.00
2023-02-05T15:33:04.143Z,17.70
2023-02-05T15:36:17.554Z,17.70
2023-02-05T15:39:24.765Z,17.80
2023-02-05T15:42:40.504Z,17.90
2023-02-05T15:45:45.194Z,18.00
2023-02-05T15:48:47.325Z,18.00
2023-02-05T15:51:51.139Z,18.50
2023-02-05T15:55:08.933Z,18.10
2023-02-05T15:58:13.656Z,18.10
2023-02-05T16:01:37.664Z,18.20
2023-02-05T16:04:43.718Z,18.40
2023-02-05T16:08:00.272Z,18.50
2023-02-05T16:11:05.385Z,18.50
2023-02-05T16:14:11.008Z,18.40
2023-02-05T16:17:21.529Z,18.50
2023-02-05T16:20:30.259Z,18.60
2023-02-05T16:23:42.907Z,18.60
2023-02-05T16:26:49.775Z,18.70
2023-02-05T16:29:59.019Z,18.80
2023-02-05T16:33:05.348Z,18.70
2023-02-05T16:36:20.927Z,18.70
2023-02-05T16:39:28.878Z,18.80
2023-02-05T16:42:46.094Z,18.90
2023-02-05T16:46:06.754Z,18.80
2023-02-05T16:49:25.727Z,18.90
2023-02-05T16:52:33.545Z,18.90
2023-02-05T16:55:43.740Z,18.90
2023-02-05T16:58:56.510Z,19.00
2023-02-05T17:01:59.719Z,19.00
2023-02-05T17:05:05.983Z,19.00
2023-02-05T17:08:13.434Z,18.90
2023-02-05T17:11:33.661Z,19.10
2023-02-05T17:14:36.827Z,18.70
2023-02-05T17:17:50.269Z,18.80
2023-02-05T17:21:28.882Z,19.20
2023-02-05T17:24:30.862Z,18.80
2023-02-05T17:27:37.818Z,18.80
2023-02-05T17:30:41.933Z,18.70
2023-02-05T17:33:49.437Z,18.40
2023-02-05T17:36:51.799Z,18.60
2023-02-05T17:39:55.535Z,18.60
2023-02-05T17:43:01.039Z,18.80
2023-02-05T17:46:03.686Z,18.50
2023-02-05T17:49:08.333Z,18.80
2023-02-05T17:52:10.955Z,18.80
2023-02-05T17:55:19.435Z,18.80
2023-02-05T17:58:21.860Z,18.80
2023-02-05T18:01:23.946Z,18.80
2023-02-05T18:04:26.362Z,18.80
2023-02-05T18:07:36.357Z,18.60
2023-02-05T18:10:38.829Z,18.70
2023-02-05T18:13:40.975Z,19.20
2023-02-05T18:16:43.340Z,18.80
2023-02-05T18:19:45.586Z,18.80
2023-02-05T18:22:57.349Z,18.80
2023-02-05T18:26:05.088Z,18.60
2023-02-05T18:29:07.875Z,19.00
2023-02-05T18:32:13.145Z,18.80
2023-02-05T18:35:16.182Z,18.80
2023-02-05T18:38:18.583Z,18.70
2023-02-05T18:41:28.714Z,18.80
2023-02-05T18:44:33.039Z,18.60
2023-02-05T18:47:35.263Z,18.80
2023-02-05T18:50:40.162Z,18.70
2023-02-05T18:53:45.600Z,18.70
2023-02-05T18:56:48.462Z,18.90
2023-02-05T18:59:54.760Z,19.00
2023-02-05T19:02:59.863Z,18.90
2023-02-05T19:06:09.919Z,18.90
2023-02-05T19:09:12.562Z,18.70
2023-02-05T19:12:21.018Z,18.80
2023-02-05T19:15:24.615Z,19.20
2023-02-05T19:18:35.248Z,18.90
2023-02-05T19:21:37.882Z,18.80
2023-02-05T19:24:40.910Z,18.50
2023-02-05T19:27:46.213Z,18.50
2023-02-05T19:30:50.696Z,18.70
2023-02-05T19:33:55.538Z,18.70
2023-02-05T19:37:01.435Z,18.70
2023-02-05T19:40:03.724Z,18.80
2023-02-05T19:43:10.803Z,18.60
2023-02-05T19:46:13.268Z,18.70
2023-02-05T19:49:19.216Z,18.50
2023-02-05T19:52:21.250Z,18.40
2023-02-05T19:55:26.158Z,18.50
2023-02-05T19:58:29.925Z,18.50
2023-02-05T20:01:34.460Z,18.50
2023-02-05T20:04:39.173Z,18.60
2023-02-05T20:07:41.730Z,18.60
2023-02-05T20:10:44.155Z,18.50
2023-02-05T20:13:47.697Z,18.70
2023-02-05T20:16:50.329Z,18.50
2023-02-05T20:19:59.629Z,18.40
2023-02-05T20:23:11.103Z,18.60
2023-02-05T20:26:19.145Z,18.50
2023-02-05T20:29:42.190Z,18.40
2023-02-05T20:32:45.874Z,18.40
2023-02-05T20:35:48.520Z,18.50
2023-02-05T20:38:58.187Z,18.40
2023-02-05T20:42:10.684Z,18.60
2023-02-05T20:45:15.420Z,18.50
2023-02-05T20:48:25.150Z,18.50
2023-02-05T20:51:28.132Z,18.50
2023-02-05T20:54:35.187Z,18.50
2023-02-05T20:57:38.832Z,18.10
2023-02-05T21:00:41.391Z,18.30
2023-02-05T21:03:51.740Z,18.30
2023-02-05T21:06:54.261Z,18.50
2023-02-05T21:09:56.964Z,18.50
2023-02-05T21:13:02.352Z,18.50
2023-02-05T21:16:11.592Z,18.50
2023-02-05T21:19:18.440Z,17.90
2023-02-05T21:22:20.750Z,18.00
2023-02-05T21:25:24.230Z,18.20
2023-02-05T21:28:27.111Z,18.10
2023-02-05T21:31:33.971Z,18.10
2023-02-05T21:34:36.782Z,18.10
2023-02-05T21:37:39.152Z,18.40
2023-02-05T21:40:41.528Z,18.40
2023-02-05T21:43:47.538Z,18.50
2023-02-05T21:46:49.936Z,18.30
2023-02-05T21:49:51.938Z,18.40
2023-02-05T21:52:55.082Z,18.50
2023-02-05T21:55:59.787Z,18.70
2023-02-05T21:59:02.342Z,18.70
2023-02-05T22:02:04.401Z,18.70
2023-02-05T22:05:07.215Z,18.70
2023-02-05T22:08:11.590Z,18.60
2023-02-05T22:11:14.998Z,18.70
2023-02-05T22:14:19.219Z,18.60
2023-02-05T22:17:22.497Z,18.60
2023-02-05T22:20:25.073Z,18.60
2023-02-05T22:23:27.372Z,18.70
2023-02-05T22:26:32.415Z,18.70
2023-02-05T22:29:34.865Z,18.80
2023-02-05T22:32:36.870Z,18.70
2023-02-05T22:35:39.271Z,18.70
2023-02-05T22:38:42.276Z,18.70
2023-02-05T22:41:44.826Z,18.80
2023-02-05T22:44:46.900Z,18.80
2023-02-05T22:47:49.267Z,18.80
2023-02-05T22:50:51.379Z,18.70
2023-02-05T22:53:54.811Z,18.70
2023-02-05T22:56:58.107Z,18.70
2023-02-05T23:00:00.461Z,18.70
2023-02-05T23:03:02.534Z,18.80
2023-02-05T23:06:13.769Z,18.80
2023-02-05T23:09:17.946Z,18.90
2023-02-05T23:12:20.292Z,18.90
2023-02-05T23:15:22.309Z,18.70
2023-02-05T23:18:24.602Z,18.70
2023-02-05T23:21:29.676Z,18.80
2023-02-05T23:24:32.366Z,18.80
2023-02-05T23:27:34.615Z,18.80
2023-02-05T23:30:36.974Z,18.90
2023-02-05T23:33:39.174Z,18.90
2023-02-05T23:36:41.461Z,18.80
2023-02-05T23:39:43.472Z,18.80
2023-02-05T23:42:45.693Z,18.90
2023-02-05T23:45:48.941Z,19.00
2023-02-05T23:48:51.232Z,19.00
2023-02-05T23:51:54.934Z,18.80
2023-02-05T23:54:57.639Z,19.30
2023-02-05T23:57:59.637Z,18.60
